Time;durP1;ratioP1;P1;durP2;ratioP2;P2;SDS_P1;SDS_P2;PMS_P1;PMS_P2;Temp;Humidity;BMP_temperature;BMP_pressure;BME280_temperature;BME280_humidity;BME280_pressure;Samples;Min_cycle;Max_cycle;Signal;HPM_P1;HPM_P2
2023/12/14 00:00:25;;;;;;;11.65;6.75;;;4.80;99.90;;;;;;4990939;28;20057;-71
2023/12/14 00:02:51;;;;;;;13.63;6.30;;;4.80;99.90;;;;;;4989254;28;20480;-71
2023/12/14 00:05:16;;;;;;;11.07;5.80;;;4.70;99.90;;;;;;4990679;28;20029;-72
2023/12/14 00:07:42;;;;;;;10.73;5.80;;;4.70;99.90;;;;;;4990725;28;20022;-70
2023/12/14 00:10:08;;;;;;;11.32;6.05;;;4.60;99.90;;;;;;4991183;28;20050;-71
2023/12/14 00:12:33;;;;;;;10.18;6.05;;;4.70;99.90;;;;;;4990103;28;20042;-70
2023/12/14 00:14:59;;;;;;;11.07;6.13;;;4.70;99.90;;;;;;4990848;28;20073;-71
2023/12/14 00:17:24;;;;;;;10.30;5.57;;;4.70;99.90;;;;;;4989538;28;20465;-72
2023/12/14 00:19:50;;;;;;;13.40;5.35;;;4.70;99.90;;;;;;4988313;28;20034;-71
2023/12/14 00:22:15;;;;;;;11.48;5.65;;;4.70;99.90;;;;;;4991005;28;20025;-71
2023/12/14 00:24:41;;;;;;;12.70;5.82;;;4.70;99.90;;;;;;4990065;28;20388;-71
2023/12/14 00:27:07;;;;;;;12.07;5.47;;;4.80;99.90;;;;;;4990471;28;20046;-71
2023/12/14 00:29:33;;;;;;;12.30;5.75;;;4.80;99.90;;;;;;4989296;28;20538;-71
2023/12/14 00:31:58;;;;;;;11.45;5.85;;;4.90;99.90;;;;;;4990732;28;20057;-71
2023/12/14 00:34:24;;;;;;;15.23;5.90;;;4.80;99.90;;;;;;4989856;28;20043;-71
2023/12/14 00:36:49;;;;;;;11.60;6.05;;;4.80;99.90;;;;;;4989545;28;20056;-73
2023/12/14 00:39:15;;;;;;;14.50;5.82;;;4.80;99.90;;;;;;4991119;28;20087;-72
2023/12/14 00:41:41;;;;;;;13.07;5.85;;;4.80;99.90;;;;;;4990401;28;20033;-71
2023/12/14 00:44:07;;;;;;;10.93;5.13;;;4.80;99.90;;;;;;4990683;28;20027;-71
2023/12/14 00:46:32;;;;;;;11.57;5.45;;;4.70;99.90;;;;;;4989648;28;20579;-73
2023/12/14 00:48:58;;;;;;;11.00;5.32;;;4.80;99.90;;;;;;4989086;28;20038;-71
2023/12/14 00:51:23;;;;;;;12.10;5.57;;;4.80;99.90;;;;;;4990044;28;20038;-71
2023/12/14 00:53:49;;;;;;;11.32;5.07;;;4.80;99.90;;;;;;4988842;28;20137;-72
2023/12/14 00:56:15;;;;;;;12.50;5.22;;;4.80;99.90;;;;;;4990798;28;20034;-73
2023/12/14 00:58:40;;;;;;;9.70;5.05;;;4.90;99.90;;;;;;4990344;28;20399;-72
2023/12/14 01:01:06;;;;;;;14.45;5.10;;;4.80;99.90;;;;;;4988968;28;20023;-71
2023/12/14 01:03:32;;;;;;;11.95;5.45;;;4.90;99.90;;;;;;4992061;28;20026;-71
2023/12/14 01:05:57;;;;;;;11.98;5.40;;;4.90;99.90;;;;;;4992057;28;20038;-73
2023/12/14 01:08:23;;;;;;;11.82;5.72;;;4.80;99.90;;;;;;4993265;28;20034;-71
2023/12/14 01:10:48;;;;;;;10.07;5.22;;;4.90;99.90;;;;;;4993800;28;20039;-71
2023/12/14 01:13:14;;;;;;;10.30;5.45;;;4.90;99.90;;;;;;4994253;28;21585;-72
2023/12/14 01:15:40;;;;;;;14.82;6.10;;;4.80;99.90;;;;;;4992371;28;20049;-70
2023/12/14 01:18:06;;;;;;;13.95;5.75;;;4.80;99.90;;;;;;4992530;28;20047;-71
2023/12/14 01:20:31;;;;;;;14.90;6.25;;;4.80;99.90;;;;;;5008086;28;20031;-71
2023/12/14 01:22:57;;;;;;;11.43;5.65;;;4.80;99.90;;;;;;4992671;28;20050;-71
2023/12/14 01:25:22;;;;;;;15.65;5.95;;;4.80;99.90;;;;;;4991618;28;20019;-72
2023/12/14 01:27:48;;;;;;;15.70;5.90;;;4.80;99.90;;;;;;4993376;28;20081;-72
2023/12/14 01:30:13;;;;;;;12.93;5.97;;;4.80;99.90;;;;;;4993658;28;20082;-73
2023/12/14 01:32:39;;;;;;;12.88;6.10;;;4.80;99.90;;;;;;4993140;28;20046;-71
2023/12/14 01:35:05;;;;;;;17.00;5.72;;;4.80;99.90;;;;;;4993752;28;20494;-73
2023/12/14 01:37:30;;;;;;;19.63;5.60;;;4.80;99.90;;;;;;4993304;28;20443;-73
2023/12/14 01:39:56;;;;;;;18.23;5.78;;;4.80;99.90;;;;;;4991686;28;20066;-72
2023/12/14 01:42:22;;;;;;;12.70;5.03;;;4.90;99.90;;;;;;4993603;28;20086;-71
2023/12/14 01:44:47;;;;;;;14.55;5.47;;;4.80;99.90;;;;;;4992045;28;20080;-72
2023/12/14 01:47:13;;;;;;;15.00;5.20;;;4.80;99.90;;;;;;4994099;28;20122;-72
2023/12/14 01:49:41;;;;;;;13.18;5.25;;;4.80;99.90;;;;;;4992369;28;20080;-72
2023/12/14 01:52:07;;;;;;;15.80;5.35;;;4.80;99.90;;;;;;4991849;28;20065;-70
2023/12/14 01:54:33;;;;;;;11.50;5.30;;;4.70;99.90;;;;;;4993336;28;20022;-72
2023/12/14 01:56:59;;;;;;;17.42;6.18;;;4.70;99.90;;;;;;4993251;28;20051;-71
2023/12/14 01:59:24;;;;;;;16.23;5.47;;;4.70;99.90;;;;;;4992785;28;20037;-71
2023/12/14 02:01:56;;;;;;;16.67;5.70;;;4.70;99.90;;;;;;4991891;28;20023;-72
2023/12/14 02:04:23;;;;;;;16.92;5.15;;;4.70;99.90;;;;;;4992785;28;20030;-72
2023/12/14 02:06:48;;;;;;;13.90;5.53;;;4.60;99.90;;;;;;4991672;28;20031;-72
2023/12/14 02:09:14;;;;;;;10.43;5.35;;;4.60;99.90;;;;;;4992541;28;20031;-71
2023/12/14 02:11:40;;;;;;;16.27;5.88;;;4.80;99.90;;;;;;4992698;28;20094;-71
2023/12/14 02:14:10;;;;;;;13.32;5.28;;;4.70;99.90;;;;;;4991888;28;20027;-72
2023/12/14 02:16:38;;;;;;;15.35;5.75;;;4.60;99.90;;;;;;4992376;28;20090;-71
2023/12/14 02:19:04;;;;;;;14.05;5.65;;;4.70;99.90;;;;;;4992779;28;20076;-73
2023/12/14 02:21:29;;;;;;;15.80;5.72;;;4.70;99.90;;;;;;4992127;28;20030;-72
2023/12/14 02:23:55;;;;;;;13.73;5.38;;;4.70;99.90;;;;;;4991903;28;20029;-71
2023/12/14 02:26:21;;;;;;;19.27;6.07;;;4.70;99.90;;;;;;4992144;28;20048;-72
2023/12/14 02:28:46;;;;;;;14.45;5.43;;;4.70;99.90;;;;;;4993181;28;20033;-72
2023/12/14 02:31:12;;;;;;;18.35;5.72;;;4.70;99.90;;;;;;4992665;28;20033;-73
2023/12/14 02:33:38;;;;;;;14.30;5.57;;;4.70;99.90;;;;;;4990959;28;20026;-71
2023/12/14 02:36:04;;;;;;;13.38;4.97;;;4.70;99.90;;;;;;4992433;28;20007;-72
2023/12/14 02:38:30;;;;;;;12.23;4.95;;;4.70;99.90;;;;;;4989529;28;20030;-73
2023/12/14 02:40:55;;;;;;;13.00;5.57;;;4.70;99.90;;;;;;4992041;28;20026;-71
2023/12/14 02:43:23;;;;;;;13.52;4.85;;;4.70;99.90;;;;;;4991363;28;20195;-72
2023/12/14 02:45:49;;;;;;;13.10;5.35;;;4.70;99.90;;;;;;4991713;28;20098;-72
2023/12/14 02:48:14;;;;;;;11.10;5.18;;;4.70;99.90;;;;;;4992350;28;20053;-73
2023/12/14 02:50:40;;;;;;;16.90;5.20;;;4.70;99.90;;;;;;4992296;28;20098;-71
2023/12/14 02:53:06;;;;;;;12.60;5.28;;;4.70;99.90;;;;;;4991699;28;20034;-72
2023/12/14 02:55:31;;;;;;;14.48;5.32;;;4.80;99.90;;;;;;4991368;28;20660;-71
2023/12/14 02:57:57;;;;;;;13.75;5.15;;;4.70;99.90;;;;;;4992291;28;20065;-71
2023/12/14 03:00:22;;;;;;;14.52;5.28;;;4.70;99.90;;;;;;4992457;28;20058;-71
2023/12/14 03:02:48;;;;;;;14.25;4.90;;;4.70;99.90;;;;;;4992178;28;20049;-72
2023/12/14 03:05:13;;;;;;;18.67;6.07;;;4.70;99.90;;;;;;5006890;28;20027;-72
2023/12/14 03:07:39;;;;;;;13.20;5.50;;;4.70;99.90;;;;;;4991786;28;20685;-72
2023/12/14 03:10:05;;;;;;;18.77;5.47;;;4.80;99.90;;;;;;4991246;28;20399;-71
2023/12/14 03:12:31;;;;;;;16.58;5.90;;;4.70;99.90;;;;;;4989462;28;20074;-71
2023/12/14 03:14:56;;;;;;;15.75;5.60;;;4.70;99.90;;;;;;4992093;28;20037;-70
2023/12/14 03:17:22;;;;;;;14.30;5.07;;;4.70;99.90;;;;;;4991148;28;20417;-74
2023/12/14 03:19:47;;;;;;;12.10;5.20;;;4.90;99.90;;;;;;4990631;28;20095;-71
2023/12/14 03:22:13;;;;;;;13.18;5.55;;;4.80;99.90;;;;;;4992097;28;20015;-74
2023/12/14 03:24:39;;;;;;;11.57;5.13;;;4.80;99.90;;;;;;4991917;28;20034;-71
2023/12/14 03:27:04;;;;;;;12.98;5.35;;;4.80;99.90;;;;;;4991221;28;20054;-71
2023/12/14 03:29:30;;;;;;;13.15;4.50;;;4.90;99.90;;;;;;4991291;28;20034;-72
2023/12/14 03:31:56;;;;;;;16.08;4.93;;;4.90;99.90;;;;;;4992095;28;20062;-71
2023/12/14 03:34:22;;;;;;;14.57;5.00;;;4.90;99.90;;;;;;4992213;28;20027;-71
2023/12/14 03:36:48;;;;;;;11.23;4.90;;;4.80;99.90;;;;;;4991333;28;20506;-72
2023/12/14 03:39:14;;;;;;;14.75;5.20;;;4.80;99.90;;;;;;4992468;28;20113;-73
2023/12/14 03:41:40;;;;;;;15.25;5.80;;;4.90;99.90;;;;;;4991606;28;20026;-71
2023/12/14 03:44:06;;;;;;;14.73;5.38;;;4.80;99.90;;;;;;4990634;28;20024;-70
2023/12/14 03:46:31;;;;;;;13.30;4.43;;;4.80;99.90;;;;;;4991990;28;20023;-72
2023/12/14 03:48:57;;;;;;;14.75;5.18;;;4.80;99.90;;;;;;4991801;28;20046;-71
2023/12/14 03:51:22;;;;;;;15.48;4.57;;;4.80;99.90;;;;;;4991254;28;20419;-72
2023/12/14 03:53:48;;;;;;;16.65;4.82;;;4.80;99.90;;;;;;4990437;28;20046;-72
2023/12/14 03:56:13;;;;;;;12.95;5.18;;;4.80;99.90;;;;;;4991083;28;20019;-72
2023/12/14 03:58:39;;;;;;;13.63;4.97;;;4.80;99.90;;;;;;4991636;28;20392;-72
2023/12/14 04:01:05;;;;;;;20.60;5.78;;;4.90;99.90;;;;;;4990374;28;20042;-72
2023/12/14 04:03:30;;;;;;;16.02;5.20;;;4.80;99.90;;;;;;4989599;28;20023;-72
2023/12/14 04:05:56;;;;;;;13.43;5.70;;;4.80;99.90;;;;;;4991760;28;20034;-72
2023/12/14 04:08:21;;;;;;;14.88;5.75;;;4.90;99.90;;;;;;4990347;28;20023;-73
2023/12/14 04:10:47;;;;;;;14.63;5.40;;;4.90;99.90;;;;;;4990581;28;20038;-73
2023/12/14 04:13:13;;;;;;;11.02;5.43;;;4.90;99.90;;;;;;4991898;28;20094;-72
2023/12/14 04:15:38;;;;;;;13.48;5.60;;;5.00;99.90;;;;;;4991245;28;20034;-72
2023/12/14 04:18:06;;;;;;;16.77;5.25;;;5.00;99.90;;;;;;4992230;28;20023;-73
2023/12/14 04:20:31;;;;;;;13.02;5.18;;;4.90;99.90;;;;;;4991109;28;20131;-71
2023/12/14 04:22:57;;;;;;;13.20;5.35;;;4.80;99.90;;;;;;4991658;28;20459;-72
2023/12/14 04:25:23;;;;;;;12.43;5.45;;;4.90;99.90;;;;;;4990161;28;20059;-72
2023/12/14 04:27:48;;;;;;;16.92;5.55;;;4.90;99.90;;;;;;4991522;28;20070;-73
2023/12/14 04:30:14;;;;;;;12.73;5.38;;;4.90;99.90;;;;;;4991657;28;20073;-73
2023/12/14 04:32:39;;;;;;;14.88;6.28;;;4.90;99.90;;;;;;4991674;28;20629;-72
2023/12/14 04:35:06;;;;;;;13.13;5.30;;;4.90;99.90;;;;;;4991748;28;20036;-72
2023/12/14 04:37:32;;;;;;;12.88;5.60;;;4.90;99.90;;;;;;4992010;28;20026;-72
2023/12/14 04:39:58;;;;;;;12.10;5.32;;;4.90;99.90;;;;;;4994954;28;20379;-72
2023/12/14 04:42:23;;;;;;;15.50;5.40;;;4.90;99.90;;;;;;5008259;28;20031;-75
2023/12/14 04:44:49;;;;;;;15.25;5.78;;;4.90;99.90;;;;;;4994743;28;20035;-73
2023/12/14 04:47:14;;;;;;;16.77;5.57;;;4.90;99.90;;;;;;4993999;28;20039;-73
2023/12/14 04:49:40;;;;;;;15.27;5.60;;;4.90;99.90;;;;;;4994715;28;20029;-72
2023/12/14 04:52:06;;;;;;;12.77;5.43;;;4.80;99.90;;;;;;4993496;28;20031;-72
2023/12/14 04:54:35;;;;;;;17.33;5.80;;;4.90;99.90;;;;;;4994982;28;20030;-72
2023/12/14 04:57:01;;;;;;;15.20;5.72;;;4.90;99.90;;;;;;4994026;28;20034;-72
2023/12/14 04:59:26;;;;;;;12.23;5.32;;;4.90;99.90;;;;;;4992996;28;20019;-73
2023/12/14 05:01:52;;;;;;;17.17;5.85;;;4.90;99.90;;;;;;4993611;28;20030;-73
2023/12/14 05:04:17;;;;;;;16.30;5.78;;;4.90;99.90;;;;;;4994816;28;20507;-72
2023/12/14 05:06:43;;;;;;;13.13;4.95;;;4.90;99.90;;;;;;4993067;28;20033;-73
2023/12/14 05:09:11;;;;;;;13.52;6.00;;;4.90;99.90;;;;;;4993221;28;20411;-72
2023/12/14 05:11:36;;;;;;;17.38;6.57;;;5.00;99.90;;;;;;4991711;28;20042;-74
2023/12/14 05:14:03;;;;;;;16.88;6.30;;;5.00;99.90;;;;;;4993833;28;20025;-69
2023/12/14 05:16:28;;;;;;;15.60;5.85;;;5.10;99.90;;;;;;4993473;28;20026;-72
2023/12/14 05:18:54;;;;;;;17.38;6.85;;;5.00;99.90;;;;;;4993032;28;20058;-70
2023/12/14 05:21:19;;;;;;;15.98;6.00;;;4.90;99.90;;;;;;4990741;28;20066;-70
2023/12/14 05:23:45;;;;;;;14.35;5.40;;;5.00;99.90;;;;;;4993458;28;20524;-72
2023/12/14 05:26:11;;;;;;;23.20;7.38;;;4.90;99.90;;;;;;4992140;28;20065;-71
2023/12/14 05:28:36;;;;;;;13.20;6.03;;;4.90;99.90;;;;;;4992753;28;20034;-71
2023/12/14 05:31:02;;;;;;;13.48;5.80;;;4.90;99.90;;;;;;4993900;28;20038;-70
2023/12/14 05:33:28;;;;;;;16.88;6.13;;;4.90;99.90;;;;;;4992953;28;20045;-73
2023/12/14 05:35:54;;;;;;;15.35;6.30;;;4.90;99.90;;;;;;4993182;28;20038;-71
2023/12/14 05:38:19;;;;;;;17.58;6.53;;;4.90;99.90;;;;;;4994090;28;20027;-71
2023/12/14 05:40:45;;;;;;;15.32;6.47;;;4.90;99.90;;;;;;4992612;28;20070;-71
2023/12/14 05:43:11;;;;;;;14.30;6.15;;;4.90;99.90;;;;;;4994022;28;20074;-71
2023/12/14 05:45:36;;;;;;;14.32;6.25;;;4.90;99.90;;;;;;4993472;28;20527;-71
2023/12/14 05:48:05;;;;;;;16.48;6.25;;;4.90;99.90;;;;;;4991138;28;20476;-71
2023/12/14 05:50:30;;;;;;;13.93;5.95;;;4.90;99.90;;;;;;4992841;28;20102;-71
2023/12/14 05:52:56;;;;;;;13.30;6.13;;;4.90;99.90;;;;;;4986907;28;20141;-71
2023/12/14 05:55:23;;;;;;;15.05;6.43;;;4.90;99.90;;;;;;4990641;28;20035;-71
2023/12/14 05:57:49;;;;;;;18.25;6.10;;;4.90;99.90;;;;;;4991931;28;20035;-72
2023/12/14 06:00:15;;;;;;;17.75;6.38;;;5.00;99.90;;;;;;4993104;28;20416;-71
2023/12/14 06:02:41;;;;;;;13.77;6.10;;;4.90;99.90;;;;;;4992364;28;20022;-71
2023/12/14 06:05:07;;;;;;;14.95;6.32;;;4.90;99.90;;;;;;4991733;28;20039;-71
2023/12/14 06:07:33;;;;;;;12.93;6.40;;;4.90;99.90;;;;;;4992322;28;20038;-72
2023/12/14 06:09:59;;;;;;;14.38;5.93;;;4.90;99.90;;;;;;4993245;28;20040;-71
2023/12/14 06:12:25;;;;;;;20.33;6.78;;;5.00;99.90;;;;;;4992049;28;20038;-71
2023/12/14 06:14:50;;;;;;;14.52;6.90;;;4.90;99.90;;;;;;4993994;28;20019;-71
2023/12/14 06:17:16;;;;;;;13.82;5.80;;;5.10;99.90;;;;;;4992253;28;20439;-72
2023/12/14 06:19:42;;;;;;;14.88;6.53;;;4.90;99.90;;;;;;4992028;28;20023;-71
2023/12/14 06:22:08;;;;;;;13.60;5.97;;;5.00;99.90;;;;;;4989643;28;20031;-70
2023/12/14 06:24:33;;;;;;;19.17;6.07;;;5.00;99.90;;;;;;4992004;28;20176;-71
2023/12/14 06:26:59;;;;;;;16.05;7.20;;;5.00;99.90;;;;;;4993027;28;20046;-70
2023/12/14 06:29:24;;;;;;;20.25;7.35;;;5.00;99.90;;;;;;4986360;28;20835;-72
2023/12/14 06:31:51;;;;;;;15.32;6.82;;;5.00;99.90;;;;;;4990897;28;20053;-70
2023/12/14 06:34:16;;;;;;;17.42;7.65;;;5.00;99.90;;;;;;4984695;28;20031;-71
2023/12/14 06:36:43;;;;;;;19.17;8.23;;;5.00;99.90;;;;;;4989339;28;20490;-71
2023/12/14 06:39:10;;;;;;;21.65;8.10;;;5.00;99.90;;;;;;4982893;28;20046;-70
2023/12/14 06:41:36;;;;;;;20.70;8.63;;;4.90;99.90;;;;;;4986737;28;20026;-71
2023/12/14 06:44:02;;;;;;;19.58;8.65;;;4.90;99.90;;;;;;4982542;28;20030;-71
2023/12/14 06:46:28;;;;;;;20.25;8.30;;;4.90;99.90;;;;;;4989290;28;20061;-69
2023/12/14 06:48:55;;;;;;;22.48;8.43;;;5.00;99.90;;;;;;4988943;28;20030;-72
2023/12/14 06:51:21;;;;;;;19.45;7.50;;;4.90;99.90;;;;;;4992150;28;20026;-71
2023/12/14 06:53:47;;;;;;;19.58;8.00;;;4.90;99.90;;;;;;4992259;28;20054;-72
2023/12/14 06:56:13;;;;;;;19.00;7.93;;;4.90;99.90;;;;;;4993167;28;20015;-71
2023/12/14 06:58:42;;;;;;;21.63;8.50;;;4.90;99.90;;;;;;4992023;28;20451;-70
2023/12/14 07:01:17;;;;;;;22.88;8.77;;;4.90;99.90;;;;;;4991164;28;20560;-71
2023/12/14 07:03:44;;;;;;;24.67;9.85;;;4.90;99.90;;;;;;4992942;28;20027;-72
2023/12/14 07:06:16;;;;;;;25.40;10.52;;;4.80;99.90;;;;;;4992906;28;20038;-71
2023/12/14 07:08:41;;;;;;;23.52;8.98;;;4.90;99.90;;;;;;4991749;28;20506;-69
2023/12/14 07:11:08;;;;;;;28.65;10.30;;;4.90;99.90;;;;;;4992708;28;20022;-70
2023/12/14 07:13:36;;;;;;;23.50;10.10;;;4.90;99.90;;;;;;4990960;28;20587;-70
2023/12/14 07:16:09;;;;;;;29.67;10.88;;;4.90;99.90;;;;;;4991261;28;20022;-70
2023/12/14 07:18:40;;;;;;;27.73;10.07;;;4.90;99.90;;;;;;4992513;28;20613;-70
2023/12/14 07:21:06;;;;;;;33.92;11.82;;;4.90;99.90;;;;;;4992684;28;20305;-70
2023/12/14 07:23:31;;;;;;;28.48;10.80;;;4.80;99.90;;;;;;4991593;28;20026;-71
2023/12/14 07:25:57;;;;;;;29.58;11.73;;;4.90;99.90;;;;;;4991749;28;20134;-71
2023/12/14 07:28:23;;;;;;;25.40;11.30;;;4.80;99.90;;;;;;4992387;28;20030;-70
2023/12/14 07:30:49;;;;;;;29.38;12.85;;;4.80;99.90;;;;;;4991952;28;20101;-72
2023/12/14 07:33:15;;;;;;;26.80;11.60;;;4.80;99.90;;;;;;4989392;28;20518;-70
2023/12/14 07:35:41;;;;;;;26.08;10.40;;;4.80;99.90;;;;;;4989081;28;20117;-71
2023/12/14 07:38:06;;;;;;;28.85;12.85;;;4.80;99.90;;;;;;4991693;28;20157;-71
2023/12/14 07:40:32;;;;;;;34.95;12.48;;;4.80;99.90;;;;;;4983125;28;20054;-71
2023/12/14 07:42:57;;;;;;;33.25;12.48;;;4.90;99.90;;;;;;4990647;28;20553;-69
2023/12/14 07:45:23;;;;;;;37.97;13.50;;;4.90;99.90;;;;;;4991574;28;20082;-72
2023/12/14 07:47:49;;;;;;;27.42;11.82;;;4.80;99.90;;;;;;4991106;28;20027;-71
2023/12/14 07:50:14;;;;;;;32.00;11.57;;;4.80;99.90;;;;;;4989883;28;20099;-71
2023/12/14 07:52:40;;;;;;;29.38;12.55;;;4.90;99.90;;;;;;4990840;28;20038;-70
2023/12/14 07:55:07;;;;;;;32.65;13.20;;;4.80;99.90;;;;;;4991610;28;20031;-71
2023/12/14 07:57:32;;;;;;;32.33;12.45;;;4.80;99.90;;;;;;4990706;28;20053;-70
2023/12/14 07:59:58;;;;;;;32.92;11.85;;;4.90;99.90;;;;;;4991298;28;20055;-70
2023/12/14 08:02:23;;;;;;;29.42;12.10;;;4.80;99.90;;;;;;4990871;28;20362;-70
2023/12/14 08:04:49;;;;;;;25.73;10.88;;;4.90;99.90;;;;;;4991146;28;20027;-71
2023/12/14 08:07:14;;;;;;;27.10;11.98;;;4.80;99.90;;;;;;4992077;28;20019;-72
2023/12/14 08:09:40;;;;;;;28.25;12.15;;;4.90;99.90;;;;;;4991156;28;20027;-70
2023/12/14 08:12:06;;;;;;;28.20;11.48;;;4.90;99.90;;;;;;4992217;28;20062;-70
2023/12/14 08:14:35;;;;;;;31.05;12.40;;;4.90;99.90;;;;;;4996622;28;20105;-72
2023/12/14 08:17:04;;;;;;;31.38;11.95;;;4.90;99.90;;;;;;4995370;28;20030;-71
2023/12/14 08:19:30;;;;;;;32.53;12.00;;;5.00;99.90;;;;;;4990906;28;20038;-71
2023/12/14 08:21:56;;;;;;;45.50;16.42;;;5.00;99.90;;;;;;4996713;28;20038;-70
2023/12/14 08:24:21;;;;;;;30.63;12.75;;;5.20;99.90;;;;;;4992690;28;20074;-72
2023/12/14 08:26:47;;;;;;;25.95;12.65;;;5.10;99.90;;;;;;4994707;28;20580;-70
2023/12/14 08:29:12;;;;;;;27.45;11.10;;;5.10;99.90;;;;;;4998105;28;20033;-71
2023/12/14 08:31:38;;;;;;;26.25;9.75;;;5.20;99.90;;;;;;4992522;28;20054;-71
2023/12/14 08:34:03;;;;;;;22.02;9.48;;;5.10;99.90;;;;;;4995330;28;20031;-71
2023/12/14 08:36:31;;;;;;;23.55;9.13;;;5.10;99.90;;;;;;4993539;28;20042;-72
2023/12/14 08:38:57;;;;;;;23.77;8.50;;;5.10;99.90;;;;;;4995633;28;20027;-71
2023/12/14 08:41:22;;;;;;;26.27;9.38;;;5.10;99.90;;;;;;4996623;28;20037;-71
2023/12/14 08:43:48;;;;;;;26.20;9.38;;;5.20;99.90;;;;;;4997090;28;20046;-71
2023/12/14 08:46:13;;;;;;;20.98;8.73;;;5.20;99.90;;;;;;4994543;28;20065;-72
2023/12/14 08:48:39;;;;;;;23.58;9.15;;;5.20;99.90;;;;;;4997846;28;20049;-70
2023/12/14 08:51:05;;;;;;;25.40;9.15;;;5.20;99.90;;;;;;4997518;28;20425;-70
2023/12/14 08:53:31;;;;;;;19.08;8.63;;;5.20;99.90;;;;;;4996531;28;20479;-70
2023/12/14 08:55:56;;;;;;;22.10;8.00;;;5.30;99.90;;;;;;4996935;28;20094;-72
2023/12/14 08:58:22;;;;;;;25.80;8.82;;;5.30;99.90;;;;;;4996317;28;20037;-71
2023/12/14 09:00:52;;;;;;;25.65;8.93;;;5.30;99.90;;;;;;5006679;28;20031;-70
2023/12/14 09:03:18;;;;;;;21.58;8.05;;;5.30;99.90;;;;;;4994204;28;20069;-72
2023/12/14 09:05:45;;;;;;;21.02;8.90;;;5.30;99.90;;;;;;4995875;28;20037;-71
2023/12/14 09:08:11;;;;;;;22.85;10.02;;;5.30;99.90;;;;;;4997594;28;20037;-71
2023/12/14 09:10:38;;;;;;;20.52;8.55;;;5.40;99.90;;;;;;4994473;28;20030;-71
2023/12/14 09:13:04;;;;;;;20.55;9.48;;;5.40;99.90;;;;;;4992542;28;20452;-70
2023/12/14 09:15:32;;;;;;;20.30;8.30;;;5.40;99.90;;;;;;4995709;28;20033;-71
2023/12/14 09:17:58;;;;;;;21.90;8.60;;;5.50;99.90;;;;;;4995962;28;20019;-70
2023/12/14 09:20:24;;;;;;;21.60;7.93;;;5.50;99.90;;;;;;4996262;28;20035;-71
2023/12/14 09:22:50;;;;;;;21.65;8.70;;;5.50;99.90;;;;;;4996118;28;20027;-71
2023/12/14 09:25:16;;;;;;;25.95;9.57;;;5.40;99.90;;;;;;4992056;28;20031;-71
2023/12/14 09:27:42;;;;;;;21.83;9.32;;;5.40;99.90;;;;;;4988178;28;20043;-72
2023/12/14 09:30:08;;;;;;;22.35;9.40;;;5.40;99.90;;;;;;4992610;28;20027;-70
2023/12/14 09:32:33;;;;;;;22.05;8.68;;;5.50;99.90;;;;;;4994172;28;20046;-71
2023/12/14 09:34:59;;;;;;;17.30;8.13;;;5.50;99.90;;;;;;4994230;28;20034;-70
2023/12/14 09:37:25;;;;;;;21.40;8.48;;;5.50;99.90;;;;;;4990916;28;20051;-70
2023/12/14 09:39:50;;;;;;;17.88;8.07;;;5.40;99.90;;;;;;4988290;28;20571;-70
2023/12/14 09:42:19;;;;;;;16.40;7.90;;;5.40;99.90;;;;;;4992479;28;20082;-71
2023/12/14 09:44:47;;;;;;;22.30;8.07;;;5.50;99.90;;;;;;4992369;28;20050;-71
2023/12/14 09:47:12;;;;;;;20.15;8.23;;;5.50;99.90;;;;;;4992414;28;20026;-71
2023/12/14 09:49:40;;;;;;;22.70;8.63;;;5.50;99.90;;;;;;4994037;28;20692;-71
2023/12/14 09:52:06;;;;;;;18.35;8.32;;;5.50;99.90;;;;;;4991646;28;20141;-70
2023/12/14 09:54:32;;;;;;;20.50;9.02;;;5.50;99.90;;;;;;4992456;28;20055;-71
2023/12/14 09:56:58;;;;;;;22.30;9.20;;;5.50;99.90;;;;;;4992079;28;20119;-71
2023/12/14 09:59:23;;;;;;;20.20;8.55;;;5.60;99.90;;;;;;4989729;28;20457;-70
2023/12/14 10:01:49;;;;;;;29.98;8.75;;;5.60;99.90;;;;;;4990156;28;20097;-71
2023/12/14 10:04:18;;;;;;;15.40;8.23;;;5.60;99.90;;;;;;4993522;28;20026;-71
2023/12/14 10:06:45;;;;;;;20.30;9.15;;;5.60;99.90;;;;;;4992888;28;20047;-70
2023/12/14 10:09:14;;;;;;;20.27;8.90;;;5.70;99.90;;;;;;4989920;28;20049;-70
2023/12/14 10:11:41;;;;;;;23.30;8.57;;;5.70;99.90;;;;;;4990543;28;20236;-70
2023/12/14 10:14:21;;;;;;;22.65;8.73;;;5.70;99.90;;;;;;4991197;28;20023;-71
2023/12/14 10:16:48;;;;;;;18.85;7.90;;;5.70;99.90;;;;;;4993200;28;20026;-71
2023/12/14 10:19:14;;;;;;;21.73;8.48;;;5.70;99.90;;;;;;4992895;28;20026;-70
2023/12/14 10:21:40;;;;;;;20.55;7.93;;;5.60;99.90;;;;;;4984661;28;20080;-71
2023/12/14 10:24:06;;;;;;;17.05;7.85;;;5.70;99.90;;;;;;4983906;28;20034;-70
2023/12/14 10:26:32;;;;;;;21.95;8.95;;;5.70;99.90;;;;;;4988208;28;20051;-71
2023/12/14 10:28:57;;;;;;;20.05;7.95;;;5.70;99.90;;;;;;4992182;28;20625;-70
2023/12/14 10:31:25;;;;;;;18.35;8.60;;;5.80;99.90;;;;;;4991526;28;20607;-71
2023/12/14 10:33:51;;;;;;;20.13;8.40;;;5.80;99.90;;;;;;4991602;28;20022;-71
2023/12/14 10:36:25;;;;;;;21.92;8.18;;;5.80;99.90;;;;;;4992460;28;20507;-71
2023/12/14 10:38:53;;;;;;;20.15;8.60;;;5.80;99.90;;;;;;4989717;28;20344;-72
2023/12/14 10:41:21;;;;;;;20.58;8.55;;;5.70;99.90;;;;;;4989088;28;20042;-70
2023/12/14 10:43:48;;;;;;;22.95;8.93;;;5.70;99.90;;;;;;4991964;28;20018;-71
2023/12/14 10:46:14;;;;;;;21.48;8.57;;;5.70;99.90;;;;;;4993334;28;20050;-72
2023/12/14 10:48:44;;;;;;;18.88;9.48;;;5.70;99.90;;;;;;4992620;28;20037;-71
2023/12/14 10:51:12;;;;;;;27.08;11.20;;;5.70;99.90;;;;;;4992540;28;20454;-71
2023/12/14 10:53:38;;;;;;;21.05;9.23;;;5.70;99.90;;;;;;4990439;28;20053;-70
2023/12/14 10:56:10;;;;;;;19.98;8.52;;;5.70;99.90;;;;;;4991184;28;20720;-70
2023/12/14 10:58:54;;;;;;;25.17;10.20;;;5.70;99.90;;;;;;4991949;28;20038;-72
2023/12/14 11:01:21;;;;;;;20.50;10.00;;;5.70;99.90;;;;;;4991527;28;20027;-70
2023/12/14 11:03:49;;;;;;;21.65;9.20;;;5.70;99.90;;;;;;4989742;28;20477;-71
2023/12/14 11:06:35;;;;;;;22.75;9.85;;;5.70;99.90;;;;;;4985228;28;20037;-72
2023/12/14 11:09:06;;;;;;;20.33;8.65;;;5.70;99.90;;;;;;4985934;28;20035;-72
2023/12/14 11:11:49;;;;;;;23.58;9.18;;;5.70;99.90;;;;;;4985856;28;20440;-71
2023/12/14 11:14:18;;;;;;;17.50;8.85;;;5.70;99.90;;;;;;4987021;28;20030;-71
2023/12/14 11:16:46;;;;;;;24.88;14.00;;;5.80;99.90;;;;;;4983957;28;20018;-72
2023/12/14 11:19:21;;;;;;;23.05;10.85;;;5.80;99.90;;;;;;4988563;28;20022;-71
2023/12/14 11:21:47;;;;;;;19.48;9.05;;;5.90;99.90;;;;;;4991522;28;20474;-71
2023/12/14 11:24:13;;;;;;;20.58;9.90;;;5.90;99.90;;;;;;4991151;28;20026;-71
2023/12/14 11:26:40;;;;;;;20.17;9.68;;;6.00;99.90;;;;;;4989329;28;20058;-71
2023/12/14 11:29:06;;;;;;;19.80;8.95;;;6.00;99.90;;;;;;4992175;28;20419;-71
2023/12/14 11:31:32;;;;;;;19.40;8.52;;;6.00;99.90;;;;;;4985071;28;20122;-73
2023/12/14 11:34:01;;;;;;;20.02;8.95;;;6.10;99.90;;;;;;4986427;28;20061;-70
2023/12/14 11:36:27;;;;;;;21.95;9.35;;;6.10;99.90;;;;;;4980126;28;20023;-70
2023/12/14 11:38:54;;;;;;;21.52;9.20;;;6.10;99.90;;;;;;4980558;28;20022;-71
2023/12/14 11:41:21;;;;;;;24.02;9.00;;;6.10;99.90;;;;;;4988857;28;20090;-71
2023/12/14 11:43:47;;;;;;;17.83;8.73;;;6.10;99.90;;;;;;4990105;28;20090;-72
2023/12/14 11:46:14;;;;;;;18.73;9.05;;;6.20;99.90;;;;;;4987062;28;20050;-71
2023/12/14 11:48:39;;;;;;;20.10;8.98;;;6.20;99.90;;;;;;4989089;28;20033;-70
2023/12/14 11:51:05;;;;;;;24.95;9.85;;;6.30;99.90;;;;;;4990915;28;20034;-71
2023/12/14 11:53:32;;;;;;;22.42;10.25;;;6.30;99.90;;;;;;4988799;28;20564;-71
2023/12/14 11:56:02;;;;;;;19.55;9.27;;;6.30;99.90;;;;;;5003923;28;20033;-71
2023/12/14 11:58:28;;;;;;;21.98;10.07;;;6.30;99.90;;;;;;4991484;28;20007;-70
2023/12/14 12:00:55;;;;;;;25.88;10.05;;;6.20;99.90;;;;;;4991511;28;20046;-71
2023/12/14 12:03:20;;;;;;;25.73;10.98;;;6.20;99.90;;;;;;4985497;28;20031;-71
2023/12/14 12:05:51;;;;;;;25.52;9.57;;;6.20;99.90;;;;;;4986904;28;20024;-72
2023/12/14 12:08:19;;;;;;;23.25;10.52;;;6.20;99.90;;;;;;4977202;28;20045;-71
2023/12/14 12:10:46;;;;;;;22.85;9.65;;;6.10;99.90;;;;;;4990845;28;20058;-72
2023/12/14 12:13:16;;;;;;;24.65;10.25;;;6.10;99.90;;;;;;4991311;28;20034;-71
2023/12/14 12:15:43;;;;;;;21.17;10.10;;;6.10;99.90;;;;;;4991671;28;20031;-71
2023/12/14 12:18:10;;;;;;;26.42;10.70;;;6.10;99.90;;;;;;4991252;28;20037;-71
2023/12/14 12:20:36;;;;;;;25.02;10.82;;;6.10;99.90;;;;;;4991460;28;20026;-71
2023/12/14 12:23:02;;;;;;;29.13;14.00;;;6.10;99.90;;;;;;4991697;28;20436;-71
2023/12/14 12:25:28;;;;;;;26.27;10.93;;;6.10;99.90;;;;;;4991519;28;20053;-70
2023/12/14 12:27:55;;;;;;;29.38;12.40;;;6.00;99.90;;;;;;4991060;28;20035;-71
2023/12/14 12:30:21;;;;;;;25.25;12.23;;;6.00;99.90;;;;;;4990246;28;20026;-71
2023/12/14 12:32:47;;;;;;;27.92;11.68;;;6.00;99.90;;;;;;4992063;28;20043;-70
2023/12/14 12:35:13;;;;;;;23.08;10.65;;;6.10;99.90;;;;;;5006589;28;20085;-72
2023/12/14 12:37:39;;;;;;;26.75;10.30;;;6.10;99.90;;;;;;4991496;28;20027;-71
2023/12/14 12:40:05;;;;;;;32.92;12.77;;;6.10;99.90;;;;;;4991850;28;20077;-70